sensor_id;sensor_type;location;lat;lon;timestamp;pressure;altitude;pressure_sealevel;temperature;humidity
68169;BME280;54981;50.206;15.978;2022-11-13T00:02:22;100355.41;;;4.15;100.00
68169;BME280;54981;50.206;15.978;2022-11-13T00:04:47;100355.41;;;4.18;100.00
68169;BME280;54981;50.206;15.978;2022-11-13T00:07:13;100354.53;;;4.16;100.00
68169;BME280;54981;50.206;15.978;2022-11-13T00:09:38;100350.19;;;4.12;100.00
68169;BME280;54981;50.206;15.978;2022-11-13T00:12:03;100351.97;;;4.07;100.00
68169;BME280;54981;50.206;15.978;2022-11-13T00:14:29;100347.63;;;3.93;100.00
68169;BME280;54981;50.206;15.978;2022-11-13T00:16:54;100349.38;;;3.94;100.00
68169;BME280;54981;50.206;15.978;2022-11-13T00:19:19;100359.03;;;3.98;100.00
68169;BME280;54981;50.206;15.978;2022-11-13T00:21:45;100356.41;;;3.95;100.00
68169;BME280;54981;50.206;15.978;2022-11-13T00:24:10;100347.63;;;3.99;100.00
68169;BME280;54981;50.206;15.978;2022-11-13T00:26:36;100348.50;;;3.95;100.00
68169;BME280;54981;50.206;15.978;2022-11-13T00:29:02;100343.25;;;3.95;100.00
68169;BME280;54981;50.206;15.978;2022-11-13T00:31:28;100346.75;;;3.91;100.00
68169;BME280;54981;50.206;15.978;2022-11-13T00:33:54;100351.13;;;3.97;100.00
68169;BME280;54981;50.206;15.978;2022-11-13T00:36:24;100345.84;;;3.97;100.00
68169;BME280;54981;50.206;15.978;2022-11-13T00:38:50;100345.84;;;3.98;100.00
68169;BME280;54981;50.206;15.978;2022-11-13T00:41:16;100344.09;;;3.96;100.00
68169;BME280;54981;50.206;15.978;2022-11-13T00:43:42;100342.31;;;4.01;100.00
68169;BME280;54981;50.206;15.978;2022-11-13T00:46:07;100341.44;;;4.00;100.00
68169;BME280;54981;50.206;15.978;2022-11-13T00:48:33;100340.59;;;3.95;100.00
68169;BME280;54981;50.206;15.978;2022-11-13T00:50:59;100344.09;;;3.94;100.00
68169;BME280;54981;50.206;15.978;2022-11-13T00:53:24;100339.72;;;3.98;100.00
68169;BME280;54981;50.206;15.978;2022-11-13T00:55:50;100339.69;;;3.96;100.00
68169;BME280;54981;50.206;15.978;2022-11-13T00:58:15;100331.78;;;3.96;100.00
68169;BME280;54981;50.206;15.978;2022-11-13T01:00:43;100332.66;;;4.01;100.00
68169;BME280;54981;50.206;15.978;2022-11-13T01:03:09;100339.69;;;4.02;100.00
68169;BME280;54981;50.206;15.978;2022-11-13T01:05:36;100331.81;;;3.99;100.00
68169;BME280;54981;50.206;15.978;2022-11-13T01:08:02;100323.84;;;4.07;100.00
68169;BME280;54981;50.206;15.978;2022-11-13T01:10:28;100322.06;;;4.08;100.00
68169;BME280;54981;50.206;15.978;2022-11-13T01:12:53;100326.44;;;4.10;100.00
68169;BME280;54981;50.206;15.978;2022-11-13T01:15:19;100322.91;;;4.13;100.00
68169;BME280;54981;50.206;15.978;2022-11-13T01:17:44;100328.16;;;4.17;100.00
68169;BME280;54981;50.206;15.978;2022-11-13T01:20:10;100330.81;;;4.19;100.00
68169;BME280;54981;50.206;15.978;2022-11-13T01:22:35;100321.09;;;4.22;100.00
68169;BME280;54981;50.206;15.978;2022-11-13T01:25:01;100318.53;;;4.10;100.00
68169;BME280;54981;50.206;15.978;2022-11-13T01:27:26;100324.75;;;4.01;100.00
68169;BME280;54981;50.206;15.978;2022-11-13T01:29:51;100319.50;;;4.00;100.00
68169;BME280;54981;50.206;15.978;2022-11-13T01:32:17;100315.09;;;4.00;100.00
68169;BME280;54981;50.206;15.978;2022-11-13T01:34:42;100321.25;;;3.96;100.00
68169;BME280;54981;50.206;15.978;2022-11-13T01:37:07;100323.03;;;3.96;100.00
68169;BME280;54981;50.206;15.978;2022-11-13T01:39:33;100321.28;;;3.95;100.00
68169;BME280;54981;50.206;15.978;2022-11-13T01:41:59;100311.59;;;3.97;100.00
68169;BME280;54981;50.206;15.978;2022-11-13T01:44:24;100309.84;;;3.94;100.00
68169;BME280;54981;50.206;15.978;2022-11-13T01:46:54;100311.66;;;3.92;100.00
68169;BME280;54981;50.206;15.978;2022-11-13T01:49:30;100307.28;;;3.90;100.00
68169;BME280;54981;50.206;15.978;2022-11-13T01:52:08;100292.31;;;3.90;100.00
68169;BME280;54981;50.206;15.978;2022-11-13T01:54:48;100285.28;;;3.92;100.00
68169;BME280;54981;50.206;15.978;2022-11-13T01:57:15;100278.22;;;3.94;100.00
68169;BME280;54981;50.206;15.978;2022-11-13T01:59:46;100279.09;;;3.99;100.00
68169;BME280;54981;50.206;15.978;2022-11-13T02:02:13;100267.69;;;3.97;100.00
68169;BME280;54981;50.206;15.978;2022-11-13T02:04:39;100272.94;;;4.00;100.00
68169;BME280;54981;50.206;15.978;2022-11-13T02:07:08;100264.13;;;4.01;100.00
68169;BME280;54981;50.206;15.978;2022-11-13T02:09:39;100270.31;;;3.96;100.00
68169;BME280;54981;50.206;15.978;2022-11-13T02:12:08;100267.75;;;3.90;100.00
68169;BME280;54981;50.206;15.978;2022-11-13T02:14:34;100260.69;;;3.93;100.00
68169;BME280;54981;50.206;15.978;2022-11-13T02:17:05;100259.84;;;3.90;100.00
68169;BME280;54981;50.206;15.978;2022-11-13T02:19:38;100259.84;;;3.90;100.00
68169;BME280;54981;50.206;15.978;2022-11-13T02:24:48;100259.88;;;3.83;100.00
68169;BME280;54981;50.206;15.978;2022-11-13T02:27:19;100255.47;;;3.84;100.00
68169;BME280;54981;50.206;15.978;2022-11-13T02:29:47;100255.53;;;3.78;100.00
68169;BME280;54981;50.206;15.978;2022-11-13T02:32:13;100263.38;;;3.84;100.00
68169;BME280;54981;50.206;15.978;2022-11-13T02:34:38;100267.78;;;3.85;100.00
68169;BME280;54981;50.206;15.978;2022-11-13T02:37:03;100258.19;;;3.73;100.00
68169;BME280;54981;50.206;15.978;2022-11-13T02:39:29;100262.56;;;3.76;100.00
68169;BME280;54981;50.206;15.978;2022-11-13T02:41:54;100269.59;;;3.69;100.00
68169;BME280;54981;50.206;15.978;2022-11-13T02:44:19;100260.91;;;3.56;100.00
68169;BME280;54981;50.206;15.978;2022-11-13T02:46:45;100255.59;;;3.62;100.00
68169;BME280;54981;50.206;15.978;2022-11-13T02:49:10;100253.81;;;3.65;100.00
68169;BME280;54981;50.206;15.978;2022-11-13T02:51:35;100250.28;;;3.72;100.00
68169;BME280;54981;50.206;15.978;2022-11-13T02:54:01;100249.38;;;3.73;100.00
68169;BME280;54981;50.206;15.978;2022-11-13T02:56:29;100249.38;;;3.73;100.00
68169;BME280;54981;50.206;15.978;2022-11-13T02:58:55;100258.16;;;3.75;100.00
68169;BME280;54981;50.206;15.978;2022-11-13T03:01:20;100260.84;;;3.69;100.00
68169;BME280;54981;50.206;15.978;2022-11-13T03:03:45;100256.47;;;3.63;100.00
68169;BME280;54981;50.206;15.978;2022-11-13T03:06:10;100259.09;;;3.63;100.00
68169;BME280;54981;50.206;15.978;2022-11-13T03:08:36;100268.75;;;3.64;100.00
68169;BME280;54981;50.206;15.978;2022-11-13T03:11:07;100267.91;;;3.56;100.00
68169;BME280;54981;50.206;15.978;2022-11-13T03:13:33;100262.72;;;3.45;100.00
68169;BME280;54981;50.206;15.978;2022-11-13T03:16:05;100263.59;;;3.41;100.00
68169;BME280;54981;50.206;15.978;2022-11-13T03:18:31;100263.63;;;3.36;100.00
68169;BME280;54981;50.206;15.978;2022-11-13T03:20:56;100255.72;;;3.39;100.00
68169;BME280;54981;50.206;15.978;2022-11-13T03:23:21;100260.09;;;3.42;100.00
68169;BME280;54981;50.206;15.978;2022-11-13T03:25:47;100250.47;;;3.32;100.00
68169;BME280;54981;50.206;15.978;2022-11-13T03:28:12;100246.06;;;3.38;100.00
68169;BME280;54981;50.206;15.978;2022-11-13T03:30:37;100241.66;;;3.39;100.00
68169;BME280;54981;50.206;15.978;2022-11-13T03:33:03;100242.59;;;3.30;100.00
68169;BME280;54981;50.206;15.978;2022-11-13T03:35:28;100241.72;;;3.30;100.00
68169;BME280;54981;50.206;15.978;2022-11-13T03:37:54;100233.81;;;3.28;100.00
68169;BME280;54981;50.206;15.978;2022-11-13T03:40:19;100244.34;;;3.27;100.00
68169;BME280;54981;50.206;15.978;2022-11-13T03:42:44;100239.09;;;3.24;100.00
68169;BME280;54981;50.206;15.978;2022-11-13T03:45:10;100246.16;;;3.20;100.00
68169;BME280;54981;50.206;15.978;2022-11-13T03:47:35;100241.75;;;3.22;100.00
68169;BME280;54981;50.206;15.978;2022-11-13T03:50:00;100244.38;;;3.30;100.00
68169;BME280;54981;50.206;15.978;2022-11-13T03:52:26;100254.88;;;3.34;100.00
68169;BME280;54981;50.206;15.978;2022-11-13T03:54:51;100243.44;;;3.34;100.00
68169;BME280;54981;50.206;15.978;2022-11-13T03:57:16;100247.81;;;3.36;100.00
68169;BME280;54981;50.206;15.978;2022-11-13T03:59:42;100245.22;;;3.32;100.00
68169;BME280;54981;50.206;15.978;2022-11-13T04:02:07;100243.50;;;3.22;100.00
68169;BME280;54981;50.206;15.978;2022-11-13T04:04:32;100240.91;;;3.09;100.00
68169;BME280;54981;50.206;15.978;2022-11-13T04:06:58;100236.56;;;3.02;100.00
68169;BME280;54981;50.206;15.978;2022-11-13T04:09:24;100241.84;;;2.93;100.00
68169;BME280;54981;50.206;15.978;2022-11-13T04:11:49;100245.38;;;2.90;100.00
68169;BME280;54981;50.206;15.978;2022-11-13T04:14:15;100241.88;;;2.84;100.00
68169;BME280;54981;50.206;15.978;2022-11-13T04:16:40;100233.13;;;2.78;100.00
68169;BME280;54981;50.206;15.978;2022-11-13T04:19:05;100234.91;;;2.70;100.00
68169;BME280;54981;50.206;15.978;2022-11-13T04:21:31;100232.25;;;2.73;100.00
68169;BME280;54981;50.206;15.978;2022-11-13T04:23:56;100221.75;;;2.70;100.00
68169;BME280;54981;50.206;15.978;2022-11-13T04:26:22;100221.75;;;2.69;100.00
68169;BME280;54981;50.206;15.978;2022-11-13T04:28:48;100231.41;;;2.56;100.00
68169;BME280;54981;50.206;15.978;2022-11-13T04:31:13;100235.84;;;2.48;100.00
68169;BME280;54981;50.206;15.978;2022-11-13T04:33:38;100237.56;;;2.40;100.00
68169;BME280;54981;50.206;15.978;2022-11-13T04:36:04;100243.72;;;2.29;100.00
68169;BME280;54981;50.206;15.978;2022-11-13T04:38:29;100229.72;;;2.24;100.00
68169;BME280;54981;50.206;15.978;2022-11-13T04:40:55;100226.19;;;2.25;100.00
68169;BME280;54981;50.206;15.978;2022-11-13T04:43:40;100229.72;;;2.17;100.00
68169;BME280;54981;50.206;15.978;2022-11-13T04:46:06;100231.47;;;2.19;100.00
68169;BME280;54981;50.206;15.978;2022-11-13T04:48:31;100233.19;;;2.14;100.00
68169;BME280;54981;50.206;15.978;2022-11-13T04:50:57;100226.22;;;2.19;100.00
68169;BME280;54981;50.206;15.978;2022-11-13T04:53:23;100226.19;;;2.25;100.00
68169;BME280;54981;50.206;15.978;2022-11-13T04:55:48;100234.09;;;2.18;100.00
68169;BME280;54981;50.206;15.978;2022-11-13T04:58:13;100234.97;;;2.12;100.00
68169;BME280;54981;50.206;15.978;2022-11-13T05:00:39;100238.47;;;2.11;100.00
68169;BME280;54981;50.206;15.978;2022-11-13T05:03:04;100230.59;;;2.05;100.00
68169;BME280;54981;50.206;15.978;2022-11-13T05:05:29;100247.22;;;2.01;100.00
68169;BME280;54981;50.206;15.978;2022-11-13T05:07:55;100248.09;;;2.01;100.00
68169;BME280;54981;50.206;15.978;2022-11-13T05:10:20;100243.72;;;2.06;100.00
68169;BME280;54981;50.206;15.978;2022-11-13T05:12:46;100252.47;;;2.05;100.00
68169;BME280;54981;50.206;15.978;2022-11-13T05:15:11;100247.22;;;2.04;100.00
68169;BME280;54981;50.206;15.978;2022-11-13T05:17:37;100244.59;;;2.02;100.00
68169;BME280;54981;50.206;15.978;2022-11-13T05:20:03;100251.59;;;2.08;100.00
68169;BME280;54981;50.206;15.978;2022-11-13T05:22:29;100252.47;;;2.10;100.00
68169;BME280;54981;50.206;15.978;2022-11-13T05:24:54;100249.84;;;2.15;100.00
68169;BME280;54981;50.206;15.978;2022-11-13T05:27:19;100244.59;;;2.08;100.00
68169;BME280;54981;50.206;15.978;2022-11-13T05:29:45;100241.97;;;2.16;100.00
68169;BME280;54981;50.206;15.978;2022-11-13T05:32:10;100244.59;;;2.19;100.00
68169;BME280;54981;50.206;15.978;2022-11-13T05:34:35;100245.47;;;2.06;100.00
68169;BME280;54981;50.206;15.978;2022-11-13T05:37:01;100242.84;;;2.07;100.00
68169;BME280;54981;50.206;15.978;2022-11-13T05:39:26;100237.59;;;2.00;100.00
68169;BME280;54981;50.206;15.978;2022-11-13T05:41:51;100240.19;;;1.97;100.00
68169;BME280;54981;50.206;15.978;2022-11-13T05:44:17;100231.44;;;1.95;100.00
68169;BME280;54981;50.206;15.978;2022-11-13T05:46:42;100241.94;;;1.95;100.00
68169;BME280;54981;50.206;15.978;2022-11-13T05:49:08;100234.94;;;1.97;100.00
68169;BME280;54981;50.206;15.978;2022-11-13T05:51:34;100234.97;;;1.90;100.00
68169;BME280;54981;50.206;15.978;2022-11-13T05:54:00;100229.69;;;1.87;100.00
68169;BME280;54981;50.206;15.978;2022-11-13T05:56:28;100233.16;;;1.80;100.00
68169;BME280;54981;50.206;15.978;2022-11-13T05:58:54;100234.03;;;1.70;100.00
68169;BME280;54981;50.206;15.978;2022-11-13T06:01:25;100233.19;;;1.71;100.00
68169;BME280;54981;50.206;15.978;2022-11-13T06:03:51;100233.19;;;1.74;100.00
68169;BME280;54981;50.206;15.978;2022-11-13T06:06:19;100234.06;;;1.68;100.00
68169;BME280;54981;50.206;15.978;2022-11-13T06:08:46;100238.38;;;1.51;100.00
68169;BME280;54981;50.206;15.978;2022-11-13T06:11:15;100242.75;;;1.47;100.00
68169;BME280;54981;50.206;15.978;2022-11-13T06:13:40;100240.09;;;1.41;100.00
68169;BME280;54981;50.206;15.978;2022-11-13T06:16:07;100240.09;;;1.38;100.00
68169;BME280;54981;50.206;15.978;2022-11-13T06:18:34;100249.69;;;1.28;100.00
68169;BME280;54981;50.206;15.978;2022-11-13T06:21:01;100238.22;;;1.10;100.00
68169;BME280;54981;50.206;15.978;2022-11-13T06:23:26;100239.13;;;1.12;100.00
68169;BME280;54981;50.206;15.978;2022-11-13T06:25:51;100232.09;;;1.11;100.00
68169;BME280;54981;50.206;15.978;2022-11-13T06:28:17;100233.91;;;1.24;100.00
68169;BME280;54981;50.206;15.978;2022-11-13T06:30:42;100231.34;;;1.30;100.00
68169;BME280;54981;50.206;15.978;2022-11-13T06:33:08;100241.84;;;1.41;100.00
68169;BME280;54981;50.206;15.978;2022-11-13T06:35:33;100241.91;;;1.52;100.00
68169;BME280;54981;50.206;15.978;2022-11-13T06:37:58;100234.03;;;1.62;100.00
68169;BME280;54981;50.206;15.978;2022-11-13T06:40:24;100219.19;;;1.78;100.00
68169;BME280;54981;50.206;15.978;2022-11-13T06:42:49;100223.56;;;1.88;100.00
68169;BME280;54981;50.206;15.978;2022-11-13T06:45:14;100218.31;;;1.91;100.00
68169;BME280;54981;50.206;15.978;2022-11-13T06:47:40;100216.56;;;1.98;100.00
68169;BME280;54981;50.206;15.978;2022-11-13T06:50:05;100213.94;;;2.03;100.00
68169;BME280;54981;50.206;15.978;2022-11-13T06:52:31;100208.69;;;2.09;100.00
68169;BME280;54981;50.206;15.978;2022-11-13T06:54:56;100212.16;;;2.23;100.00
68169;BME280;54981;50.206;15.978;2022-11-13T06:57:22;100213.06;;;2.30;100.00
68169;BME280;54981;50.206;15.978;2022-11-13T06:59:47;100206.91;;;2.42;100.00
68169;BME280;54981;50.206;15.978;2022-11-13T07:02:12;100207.75;;;2.45;100.00
68169;BME280;54981;50.206;15.978;2022-11-13T07:04:38;100210.41;;;2.53;100.00
68169;BME280;54981;50.206;15.978;2022-11-13T07:07:03;100201.59;;;2.66;100.00
68169;BME280;54981;50.206;15.978;2022-11-13T07:09:30;100200.72;;;2.72;100.00
68169;BME280;54981;50.206;15.978;2022-11-13T07:11:55;100205.94;;;2.81;100.00
68169;BME280;54981;50.206;15.978;2022-11-13T07:14:20;100204.16;;;2.88;100.00
68169;BME280;54981;50.206;15.978;2022-11-13T07:16:46;100202.34;;;3.01;100.00
68169;BME280;54981;50.206;15.978;2022-11-13T07:19:11;100199.72;;;3.02;100.00
68169;BME280;54981;50.206;15.978;2022-11-13T07:21:36;100196.16;;;3.12;100.00
68169;BME280;54981;50.206;15.978;2022-11-13T07:24:02;100195.31;;;3.10;100.00
68169;BME280;54981;50.206;15.978;2022-11-13T07:26:27;100198.78;;;3.20;100.00
68169;BME280;54981;50.206;15.978;2022-11-13T07:28:53;100199.59;;;3.27;100.00
68169;BME280;54981;50.206;15.978;2022-11-13T07:31:18;100198.72;;;3.31;100.00
68169;BME280;54981;50.206;15.978;2022-11-13T07:33:46;100203.97;;;3.29;100.00
68169;BME280;54981;50.206;15.978;2022-11-13T07:36:12;100193.53;;;3.15;100.00
68169;BME280;54981;50.206;15.978;2022-11-13T07:38:37;100196.19;;;3.09;100.00
68169;BME280;54981;50.206;15.978;2022-11-13T07:41:03;100186.56;;;3.02;100.00
68169;BME280;54981;50.206;15.978;2022-11-13T07:43:28;100201.50;;;2.97;100.00
68169;BME280;54981;50.206;15.978;2022-11-13T07:45:53;100202.38;;;2.99;100.00
68169;BME280;54981;50.206;15.978;2022-11-13T07:48:21;100205.88;;;3.04;100.00
68169;BME280;54981;50.206;15.978;2022-11-13T07:50:47;100204.06;;;3.08;100.00
68169;BME280;54981;50.206;15.978;2022-11-13T07:53:12;100208.47;;;3.13;100.00
68169;BME280;54981;50.206;15.978;2022-11-13T07:55:38;100203.16;;;3.19;100.00
68169;BME280;54981;50.206;15.978;2022-11-13T07:58:04;100209.25;;;3.31;100.00
68169;BME280;54981;50.206;15.978;2022-11-13T08:00:33;100203.88;;;3.49;100.00
68169;BME280;54981;50.206;15.978;2022-11-13T08:03:11;100209.09;;;3.61;100.00
68169;BME280;54981;50.206;15.978;2022-11-13T08:05:37;100212.47;;;3.77;100.00
68169;BME280;54981;50.206;15.978;2022-11-13T08:08:04;100213.31;;;3.84;100.00
68169;BME280;54981;50.206;15.978;2022-11-13T08:10:29;100213.31;;;3.84;100.00
68169;BME280;54981;50.206;15.978;2022-11-13T08:13:01;100213.25;;;3.93;100.00
68169;BME280;54981;50.206;15.978;2022-11-13T08:15:27;100214.97;;;3.97;100.00
68169;BME280;54981;50.206;15.978;2022-11-13T08:17:58;100211.38;;;4.09;100.00
68169;BME280;54981;50.206;15.978;2022-11-13T08:20:25;100209.53;;;4.16;100.00
68169;BME280;54981;50.206;15.978;2022-11-13T08:22:50;100205.13;;;4.18;100.00
68169;BME280;54981;50.206;15.978;2022-11-13T08:25:17;100208.50;;;4.37;100.00
68169;BME280;54981;50.206;15.978;2022-11-13T08:27:42;100211.94;;;4.42;100.00
68169;BME280;54981;50.206;15.978;2022-11-13T08:30:08;100203.88;;;4.59;100.00
68169;BME280;54981;50.206;15.978;2022-11-13T08:32:33;100196.72;;;4.68;100.00
68169;BME280;54981;50.206;15.978;2022-11-13T08:34:59;100199.28;;;4.78;100.00
68169;BME280;54981;50.206;15.978;2022-11-13T08:37:24;100200.13;;;4.81;100.00
68169;BME280;54981;50.206;15.978;2022-11-13T08:39:49;100191.22;;;4.91;100.00
68169;BME280;54981;50.206;15.978;2022-11-13T08:42:15;100194.50;;;5.07;100.00
68169;BME280;54981;50.206;15.978;2022-11-13T08:44:40;100190.03;;;5.16;100.00
68169;BME280;54981;50.206;15.978;2022-11-13T08:47:05;100188.88;;;5.37;100.00
68169;BME280;54981;50.206;15.978;2022-11-13T08:49:31;100184.28;;;5.51;100.00
68169;BME280;54981;50.206;15.978;2022-11-13T08:51:56;100192.09;;;5.57;100.00
68169;BME280;54981;50.206;15.978;2022-11-13T08:54:21;100191.72;;;5.82;100.00
68169;BME280;54981;50.206;15.978;2022-11-13T08:56:47;100190.22;;;6.23;100.00
68169;BME280;54981;50.206;15.978;2022-11-13T08:59:13;100192.44;;;6.47;100.00
68169;BME280;54981;50.206;15.978;2022-11-13T09:01:38;100190.19;;;6.74;100.00
68169;BME280;54981;50.206;15.978;2022-11-13T09:04:03;100193.22;;;6.97;100.00
68169;BME280;54981;50.206;15.978;2022-11-13T09:06:29;100196.47;;;7.12;100.00
68169;BME280;54981;50.206;15.978;2022-11-13T09:08:54;100181.13;;;7.28;100.00
68169;BME280;54981;50.206;15.978;2022-11-13T09:11:19;100189.75;;;7.39;100.00
68169;BME280;54981;50.206;15.978;2022-11-13T09:13:45;100183.34;;;7.47;100.00
68169;BME280;54981;50.206;15.978;2022-11-13T09:16:11;100177.84;;;7.57;100.00
68169;BME280;54981;50.206;15.978;2022-11-13T09:18:36;100178.47;;;7.68;100.00
68169;BME280;54981;50.206;15.978;2022-11-13T09:21:02;100183.47;;;7.80;100.00
68169;BME280;54981;50.206;15.978;2022-11-13T09:23:27;100180.03;;;7.77;100.00
68169;BME280;54981;50.206;15.978;2022-11-13T09:25:53;100173.81;;;7.79;100.00
68169;BME280;54981;50.206;15.978;2022-11-13T09:28:18;100185.09;;;7.87;100.00
68169;BME280;54981;50.206;15.978;2022-11-13T09:30:44;100182.22;;;7.97;100.00
68169;BME280;54981;50.206;15.978;2022-11-13T09:33:09;100175.69;;;8.10;100.00
68169;BME280;54981;50.206;15.978;2022-11-13T09:35:40;100179.31;;;8.42;100.00
68169;BME280;54981;50.206;15.978;2022-11-13T09:38:08;100180.16;;;8.77;100.00
68169;BME280;54981;50.206;15.978;2022-11-13T09:40:45;100177.38;;;9.12;100.00
68169;BME280;54981;50.206;15.978;2022-11-13T09:43:40;100176.84;;;9.31;100.00
68169;BME280;54981;50.206;15.978;2022-11-13T09:49:37;100169.91;;;9.55;100.00
68169;BME280;54981;50.206;15.978;2022-11-13T09:51:37;100175.72;;;9.68;100.00
68169;BME280;54981;50.206;15.978;2022-11-13T09:54:08;100169.13;;;9.79;100.00
68169;BME280;54981;50.206;15.978;2022-11-13T09:59:50;100157.22;;;9.91;100.00
68169;BME280;54981;50.206;15.978;2022-11-13T10:05:13;100162.16;;;10.30;100.00
68169;BME280;54981;50.206;15.978;2022-11-13T10:08:09;100162.09;;;10.32;100.00
68169;BME280;54981;50.206;15.978;2022-11-13T10:10:48;100160.88;;;10.15;100.00
68169;BME280;54981;50.206;15.978;2022-11-13T10:16:05;100156.69;;;10.60;100.00
68169;BME280;54981;50.206;15.978;2022-11-13T10:18:37;100157.06;;;10.74;100.00
68169;BME280;54981;50.206;15.978;2022-11-13T10:21:28;100158.91;;;10.72;100.00
68169;BME280;54981;50.206;15.978;2022-11-13T10:23:56;100153.19;;;10.83;99.83
68169;BME280;54981;50.206;15.978;2022-11-13T10:26:26;100146.56;;;10.70;99.73
68169;BME280;54981;50.206;15.978;2022-11-13T10:29:15;100152.22;;;10.85;98.30
68169;BME280;54981;50.206;15.978;2022-11-13T10:31:46;100152.22;;;10.60;99.38
68169;BME280;54981;50.206;15.978;2022-11-13T10:34:13;100149.19;;;10.71;98.47
68169;BME280;54981;50.206;15.978;2022-11-13T10:39:26;100138.78;;;11.12;96.63
68169;BME280;54981;50.206;15.978;2022-11-13T10:41:53;100133.78;;;11.03;95.82
68169;BME280;54981;50.206;15.978;2022-11-13T10:44:28;100132.00;;;11.27;96.11
68169;BME280;54981;50.206;15.978;2022-11-13T10:49:30;100124.34;;;11.18;95.89
68169;BME280;54981;50.206;15.978;2022-11-13T10:51:57;100121.25;;;11.52;95.32
68169;BME280;54981;50.206;15.978;2022-11-13T10:54:31;100122.25;;;11.71;93.42
68169;BME280;54981;50.206;15.978;2022-11-13T10:57:03;100125.31;;;11.83;92.20
68169;BME280;54981;50.206;15.978;2022-11-13T10:59:41;100127.09;;;11.62;92.32
68169;BME280;54981;50.206;15.978;2022-11-13T11:02:18;100127.00;;;11.41;90.85
68169;BME280;54981;50.206;15.978;2022-11-13T11:04:44;100123.69;;;11.35;92.29
68169;BME280;54981;50.206;15.978;2022-11-13T11:07:21;100117.34;;;11.37;92.88
68169;BME280;54981;50.206;15.978;2022-11-13T11:09:47;100123.06;;;11.28;92.77
68169;BME280;54981;50.206;15.978;2022-11-13T11:12:32;100113.41;;;11.69;93.00
68169;BME280;54981;50.206;15.978;2022-11-13T11:15:00;100112.16;;;11.78;92.44
68169;BME280;54981;50.206;15.978;2022-11-13T11:20:15;100115.09;;;11.50;91.39
68169;BME280;54981;50.206;15.978;2022-11-13T11:22:43;100107.19;;;11.47;91.00
68169;BME280;54981;50.206;15.978;2022-11-13T11:25:14;100101.63;;;11.31;91.35
68169;BME280;54981;50.206;15.978;2022-11-13T11:30:23;100088.97;;;11.58;91.79
68169;BME280;54981;50.206;15.978;2022-11-13T11:35:58;100074.81;;;11.56;91.49
68169;BME280;54981;50.206;15.978;2022-11-13T11:38:45;100073.47;;;11.46;90.00
68169;BME280;54981;50.206;15.978;2022-11-13T11:41:13;100074.69;;;11.59;90.52
68169;BME280;54981;50.206;15.978;2022-11-13T11:43:46;100075.94;;;11.50;90.10
68169;BME280;54981;50.206;15.978;2022-11-13T11:46:15;100074.75;;;11.80;89.44
68169;BME280;54981;50.206;15.978;2022-11-13T11:48:42;100073.72;;;11.62;90.47
68169;BME280;54981;50.206;15.978;2022-11-13T11:54:41;100062.56;;;11.52;90.04
68169;BME280;54981;50.206;15.978;2022-11-13T12:07:32;100029.75;;;11.70;88.07
68169;BME280;54981;50.206;15.978;2022-11-13T12:15:53;100010.19;;;11.71;87.35
68169;BME280;54981;50.206;15.978;2022-11-13T12:27:23;99987.44;;;11.41;87.98
68169;BME280;54981;50.206;15.978;2022-11-13T12:35:28;99998.88;;;11.22;88.81
68169;BME280;54981;50.206;15.978;2022-11-13T12:40:48;99997.69;;;11.29;89.03
68169;BME280;54981;50.206;15.978;2022-11-13T12:45:49;99995.06;;;11.28;88.29
68169;BME280;54981;50.206;15.978;2022-11-13T12:48:25;99987.28;;;11.23;89.63
68169;BME280;54981;50.206;15.978;2022-11-13T12:51:03;99978.22;;;11.27;90.21
68169;BME280;54981;50.206;15.978;2022-11-13T12:53:42;99973.97;;;11.23;88.87
68169;BME280;54981;50.206;15.978;2022-11-13T12:56:27;99972.75;;;11.08;89.68
68169;BME280;54981;50.206;15.978;2022-11-13T12:59:24;99969.91;;;10.91;90.28
68169;BME280;54981;50.206;15.978;2022-11-13T13:15:42;99938.97;;;10.65;89.88
68169;BME280;54981;50.206;15.978;2022-11-13T13:21:08;99939.63;;;10.48;91.52
68169;BME280;54981;50.206;15.978;2022-11-13T13:23:35;99930.31;;;10.36;92.21
68169;BME280;54981;50.206;15.978;2022-11-13T13:26:25;99935.75;;;10.33;92.50
68169;BME280;54981;50.206;15.978;2022-11-13T13:28:54;99925.34;;;10.27;93.42
68169;BME280;54981;50.206;15.978;2022-11-13T13:34:14;99924.22;;;10.34;93.76
68169;BME280;54981;50.206;15.978;2022-11-13T13:47:48;99925.16;;;10.08;94.85
68169;BME280;54981;50.206;15.978;2022-11-13T13:50:24;99907.34;;;10.10;95.05
68169;BME280;54981;50.206;15.978;2022-11-13T13:52:51;99905.72;;;10.06;95.19
68169;BME280;54981;50.206;15.978;2022-11-13T13:55:33;99899.44;;;10.07;95.89
68169;BME280;54981;50.206;15.978;2022-11-13T13:58:01;99902.09;;;10.07;96.24
68169;BME280;54981;50.206;15.978;2022-11-13T14:00:28;99901.59;;;9.97;96.96
68169;BME280;54981;50.206;15.978;2022-11-13T14:02:54;99905.06;;;9.99;96.36
68169;BME280;54981;50.206;15.978;2022-11-13T14:05:23;99906.16;;;9.94;96.86
68169;BME280;54981;50.206;15.978;2022-11-13T14:07:49;99901.72;;;9.94;97.27
68169;BME280;54981;50.206;15.978;2022-11-13T14:10:17;99905.31;;;9.93;97.12
68169;BME280;54981;50.206;15.978;2022-11-13T14:12:45;99902.16;;;9.82;97.45
68169;BME280;54981;50.206;15.978;2022-11-13T14:15:34;99901.75;;;9.93;97.54
68169;BME280;54981;50.206;15.978;2022-11-13T14:18:05;99897.56;;;9.86;97.54
68169;BME280;54981;50.206;15.978;2022-11-13T14:20:41;99890.25;;;9.92;97.26
68169;BME280;54981;50.206;15.978;2022-11-13T14:23:11;99893.25;;;9.83;97.90